sensor_id;sensor_type;location;lat;lon;timestamp;P1;durP1;ratioP1;P2;durP2;ratioP2
22687;SDS011;11511;51.514;7.080;2022-12-22T00:02:19;13.45;;;8.93;;
22687;SDS011;11511;51.514;7.080;2022-12-22T00:05:10;13.32;;;9.18;;
22687;SDS011;11511;51.514;7.080;2022-12-22T00:07:59;12.25;;;9.07;;
22687;SDS011;11511;51.514;7.080;2022-12-22T00:10:44;11.43;;;9.15;;
22687;SDS011;11511;51.514;7.080;2022-12-22T00:13:29;15.65;;;9.70;;
22687;SDS011;11511;51.514;7.080;2022-12-22T00:16:14;15.30;;;10.20;;
22687;SDS011;11511;51.514;7.080;2022-12-22T00:18:59;16.50;;;10.52;;
22687;SDS011;11511;51.514;7.080;2022-12-22T00:21:43;15.48;;;10.20;;
22687;SDS011;11511;51.514;7.080;2022-12-22T00:24:28;14.38;;;10.05;;
22687;SDS011;11511;51.514;7.080;2022-12-22T00:27:16;12.38;;;9.75;;
22687;SDS011;11511;51.514;7.080;2022-12-22T00:30:11;14.27;;;9.32;;
22687;SDS011;11511;51.514;7.080;2022-12-22T00:32:56;12.60;;;9.85;;
22687;SDS011;11511;51.514;7.080;2022-12-22T00:35:41;16.42;;;9.65;;
22687;SDS011;11511;51.514;7.080;2022-12-22T00:38:26;15.27;;;10.10;;
22687;SDS011;11511;51.514;7.080;2022-12-22T00:41:10;13.55;;;10.48;;
22687;SDS011;11511;51.514;7.080;2022-12-22T00:43:55;12.80;;;10.00;;
22687;SDS011;11511;51.514;7.080;2022-12-22T00:46:39;13.93;;;9.98;;
22687;SDS011;11511;51.514;7.080;2022-12-22T00:49:26;17.50;;;10.98;;
22687;SDS011;11511;51.514;7.080;2022-12-22T00:52:12;17.77;;;10.80;;
22687;SDS011;11511;51.514;7.080;2022-12-22T00:54:57;15.07;;;10.57;;
22687;SDS011;11511;51.514;7.080;2022-12-22T00:57:42;14.13;;;10.48;;
22687;SDS011;11511;51.514;7.080;2022-12-22T01:00:27;15.07;;;10.10;;
22687;SDS011;11511;51.514;7.080;2022-12-22T01:05:59;16.45;;;9.93;;
22687;SDS011;11511;51.514;7.080;2022-12-22T01:08:45;15.45;;;9.50;;
22687;SDS011;11511;51.514;7.080;2022-12-22T01:14:16;12.25;;;8.82;;
22687;SDS011;11511;51.514;7.080;2022-12-22T01:17:00;12.30;;;9.20;;
22687;SDS011;11511;51.514;7.080;2022-12-22T01:19:45;13.70;;;9.07;;
22687;SDS011;11511;51.514;7.080;2022-12-22T01:22:29;11.50;;;8.80;;
22687;SDS011;11511;51.514;7.080;2022-12-22T01:25:15;15.73;;;9.77;;
22687;SDS011;11511;51.514;7.080;2022-12-22T01:28:01;14.95;;;9.82;;
22687;SDS011;11511;51.514;7.080;2022-12-22T01:30:47;13.63;;;9.70;;
22687;SDS011;11511;51.514;7.080;2022-12-22T01:33:31;17.58;;;10.25;;
22687;SDS011;11511;51.514;7.080;2022-12-22T01:36:16;15.77;;;9.68;;
22687;SDS011;11511;51.514;7.080;2022-12-22T01:39:00;12.90;;;9.60;;
22687;SDS011;11511;51.514;7.080;2022-12-22T01:41:45;18.73;;;11.48;;
22687;SDS011;11511;51.514;7.080;2022-12-22T01:44:30;17.15;;;11.13;;
22687;SDS011;11511;51.514;7.080;2022-12-22T01:50:23;15.95;;;10.32;;
22687;SDS011;11511;51.514;7.080;2022-12-22T01:53:17;14.35;;;10.40;;
22687;SDS011;11511;51.514;7.080;2022-12-22T01:56:04;18.63;;;10.63;;
22687;SDS011;11511;51.514;7.080;2022-12-22T01:58:50;16.88;;;11.35;;
22687;SDS011;11511;51.514;7.080;2022-12-22T02:01:37;14.15;;;10.38;;
22687;SDS011;11511;51.514;7.080;2022-12-22T02:04:25;14.60;;;11.07;;
22687;SDS011;11511;51.514;7.080;2022-12-22T02:07:27;14.27;;;11.07;;
22687;SDS011;11511;51.514;7.080;2022-12-22T02:13:24;15.85;;;10.70;;
22687;SDS011;11511;51.514;7.080;2022-12-22T02:16:29;17.33;;;11.05;;
22687;SDS011;11511;51.514;7.080;2022-12-22T02:25:38;14.05;;;9.60;;
22687;SDS011;11511;51.514;7.080;2022-12-22T02:28:27;14.23;;;10.73;;
22687;SDS011;11511;51.514;7.080;2022-12-22T02:31:15;13.90;;;10.02;;
22687;SDS011;11511;51.514;7.080;2022-12-22T02:34:00;13.73;;;10.32;;
22687;SDS011;11511;51.514;7.080;2022-12-22T02:37:03;13.60;;;9.98;;
22687;SDS011;11511;51.514;7.080;2022-12-22T02:46:27;13.48;;;8.82;;
22687;SDS011;11511;51.514;7.080;2022-12-22T02:49:30;13.85;;;9.52;;
22687;SDS011;11511;51.514;7.080;2022-12-22T02:52:24;11.05;;;8.73;;
22687;SDS011;11511;51.514;7.080;2022-12-22T02:55:14;14.80;;;8.90;;
22687;SDS011;11511;51.514;7.080;2022-12-22T02:57:59;11.00;;;8.35;;
22687;SDS011;11511;51.514;7.080;2022-12-22T03:00:44;10.70;;;7.40;;
22687;SDS011;11511;51.514;7.080;2022-12-22T03:03:29;7.90;;;6.50;;
22687;SDS011;11511;51.514;7.080;2022-12-22T03:06:13;13.18;;;7.07;;
22687;SDS011;11511;51.514;7.080;2022-12-22T03:08:57;7.70;;;6.40;;
22687;SDS011;11511;51.514;7.080;2022-12-22T03:11:42;8.55;;;7.05;;
22687;SDS011;11511;51.514;7.080;2022-12-22T03:14:26;11.40;;;7.53;;
22687;SDS011;11511;51.514;7.080;2022-12-22T03:17:10;10.30;;;7.17;;
22687;SDS011;11511;51.514;7.080;2022-12-22T03:19:55;11.98;;;8.13;;
22687;SDS011;11511;51.514;7.080;2022-12-22T03:22:40;9.70;;;7.37;;
22687;SDS011;11511;51.514;7.080;2022-12-22T03:25:24;11.00;;;8.23;;
22687;SDS011;11511;51.514;7.080;2022-12-22T03:28:08;12.25;;;8.35;;
22687;SDS011;11511;51.514;7.080;2022-12-22T03:30:34;14.75;;;8.77;;
22687;SDS011;11511;51.514;7.080;2022-12-22T03:33:00;13.95;;;7.63;;
22687;SDS011;11511;51.514;7.080;2022-12-22T03:35:26;12.35;;;8.00;;
22687;SDS011;11511;51.514;7.080;2022-12-22T03:37:51;10.65;;;7.90;;
22687;SDS011;11511;51.514;7.080;2022-12-22T03:40:17;9.63;;;7.00;;
22687;SDS011;11511;51.514;7.080;2022-12-22T03:42:43;9.52;;;6.95;;
22687;SDS011;11511;51.514;7.080;2022-12-22T03:45:27;8.85;;;6.22;;
22687;SDS011;11511;51.514;7.080;2022-12-22T03:48:11;8.85;;;6.65;;
22687;SDS011;11511;51.514;7.080;2022-12-22T03:50:36;8.88;;;6.70;;
22687;SDS011;11511;51.514;7.080;2022-12-22T03:53:02;10.27;;;6.85;;
22687;SDS011;11511;51.514;7.080;2022-12-22T03:55:28;8.20;;;6.55;;
22687;SDS011;11511;51.514;7.080;2022-12-22T03:57:54;9.23;;;6.57;;
22687;SDS011;11511;51.514;7.080;2022-12-22T04:00:20;9.32;;;6.32;;
22687;SDS011;11511;51.514;7.080;2022-12-22T04:02:46;10.57;;;6.53;;
22687;SDS011;11511;51.514;7.080;2022-12-22T04:05:12;9.23;;;6.40;;
22687;SDS011;11511;51.514;7.080;2022-12-22T04:07:37;9.82;;;7.05;;
22687;SDS011;11511;51.514;7.080;2022-12-22T04:10:03;8.50;;;6.40;;
22687;SDS011;11511;51.514;7.080;2022-12-22T04:12:50;10.73;;;7.22;;
22687;SDS011;11511;51.514;7.080;2022-12-22T04:15:29;10.32;;;6.97;;
22687;SDS011;11511;51.514;7.080;2022-12-22T04:17:57;10.93;;;6.70;;
22687;SDS011;11511;51.514;7.080;2022-12-22T04:20:23;8.68;;;6.30;;
22687;SDS011;11511;51.514;7.080;2022-12-22T04:22:54;11.77;;;6.53;;
22687;SDS011;11511;51.514;7.080;2022-12-22T04:25:20;6.63;;;5.50;;
22687;SDS011;11511;51.514;7.080;2022-12-22T04:27:47;6.50;;;5.20;;
22687;SDS011;11511;51.514;7.080;2022-12-22T04:30:13;7.40;;;5.43;;
22687;SDS011;11511;51.514;7.080;2022-12-22T04:32:39;7.53;;;5.40;;
22687;SDS011;11511;51.514;7.080;2022-12-22T04:35:06;10.57;;;5.10;;
22687;SDS011;11511;51.514;7.080;2022-12-22T04:37:32;9.00;;;5.50;;
22687;SDS011;11511;51.514;7.080;2022-12-22T04:39:58;5.93;;;4.70;;
22687;SDS011;11511;51.514;7.080;2022-12-22T04:42:24;7.60;;;4.93;;
22687;SDS011;11511;51.514;7.080;2022-12-22T04:44:50;6.63;;;5.00;;
22687;SDS011;11511;51.514;7.080;2022-12-22T04:47:16;6.65;;;4.50;;
22687;SDS011;11511;51.514;7.080;2022-12-22T04:49:42;6.63;;;4.75;;
22687;SDS011;11511;51.514;7.080;2022-12-22T04:52:08;6.40;;;5.15;;
22687;SDS011;11511;51.514;7.080;2022-12-22T04:54:34;7.57;;;5.53;;
22687;SDS011;11511;51.514;7.080;2022-12-22T04:57:00;6.93;;;4.90;;
22687;SDS011;11511;51.514;7.080;2022-12-22T04:59:26;6.47;;;4.80;;
22687;SDS011;11511;51.514;7.080;2022-12-22T05:01:51;6.05;;;4.80;;
22687;SDS011;11511;51.514;7.080;2022-12-22T05:04:17;6.00;;;4.72;;
22687;SDS011;11511;51.514;7.080;2022-12-22T05:06:43;7.80;;;4.88;;
22687;SDS011;11511;51.514;7.080;2022-12-22T05:09:09;9.70;;;5.10;;
22687;SDS011;11511;51.514;7.080;2022-12-22T05:11:36;9.02;;;5.20;;
22687;SDS011;11511;51.514;7.080;2022-12-22T05:14:02;7.70;;;5.60;;
22687;SDS011;11511;51.514;7.080;2022-12-22T05:16:27;10.27;;;5.78;;
22687;SDS011;11511;51.514;7.080;2022-12-22T05:18:53;8.73;;;5.57;;
22687;SDS011;11511;51.514;7.080;2022-12-22T05:21:20;9.20;;;6.07;;
22687;SDS011;11511;51.514;7.080;2022-12-22T05:23:47;8.65;;;6.40;;
22687;SDS011;11511;51.514;7.080;2022-12-22T05:26:15;9.60;;;6.10;;
22687;SDS011;11511;51.514;7.080;2022-12-22T05:28:42;9.18;;;5.85;;
22687;SDS011;11511;51.514;7.080;2022-12-22T05:31:09;9.38;;;6.35;;
22687;SDS011;11511;51.514;7.080;2022-12-22T05:33:39;9.82;;;5.90;;
22687;SDS011;11511;51.514;7.080;2022-12-22T05:36:04;8.45;;;6.80;;
22687;SDS011;11511;51.514;7.080;2022-12-22T05:38:30;23.17;;;7.50;;
22687;SDS011;11511;51.514;7.080;2022-12-22T05:40:56;20.30;;;7.30;;
22687;SDS011;11511;51.514;7.080;2022-12-22T05:43:22;8.95;;;6.40;;
22687;SDS011;11511;51.514;7.080;2022-12-22T05:45:47;8.73;;;6.25;;
22687;SDS011;11511;51.514;7.080;2022-12-22T05:48:13;10.35;;;6.72;;
22687;SDS011;11511;51.514;7.080;2022-12-22T05:50:39;11.90;;;7.20;;
22687;SDS011;11511;51.514;7.080;2022-12-22T05:53:05;10.85;;;6.63;;
22687;SDS011;11511;51.514;7.080;2022-12-22T05:55:32;16.88;;;6.38;;
22687;SDS011;11511;51.514;7.080;2022-12-22T05:57:58;11.05;;;6.75;;
22687;SDS011;11511;51.514;7.080;2022-12-22T06:00:26;17.02;;;9.45;;
22687;SDS011;11511;51.514;7.080;2022-12-22T06:02:53;15.32;;;8.18;;
22687;SDS011;11511;51.514;7.080;2022-12-22T06:05:19;18.38;;;10.50;;
22687;SDS011;11511;51.514;7.080;2022-12-22T06:07:45;30.58;;;14.10;;
22687;SDS011;11511;51.514;7.080;2022-12-22T06:10:11;46.63;;;15.63;;
22687;SDS011;11511;51.514;7.080;2022-12-22T06:12:37;32.53;;;14.48;;
22687;SDS011;11511;51.514;7.080;2022-12-22T06:15:05;45.75;;;14.55;;
22687;SDS011;11511;51.514;7.080;2022-12-22T06:17:31;27.50;;;15.02;;
22687;SDS011;11511;51.514;7.080;2022-12-22T06:19:57;32.67;;;17.02;;
22687;SDS011;11511;51.514;7.080;2022-12-22T06:22:23;37.35;;;18.55;;
22687;SDS011;11511;51.514;7.080;2022-12-22T06:24:48;35.05;;;17.55;;
22687;SDS011;11511;51.514;7.080;2022-12-22T06:27:14;37.22;;;18.77;;
22687;SDS011;11511;51.514;7.080;2022-12-22T06:29:40;37.97;;;18.40;;
22687;SDS011;11511;51.514;7.080;2022-12-22T06:32:06;104.28;;;17.55;;
22687;SDS011;11511;51.514;7.080;2022-12-22T06:34:31;103.72;;;17.63;;
22687;SDS011;11511;51.514;7.080;2022-12-22T06:36:57;34.40;;;17.73;;
22687;SDS011;11511;51.514;7.080;2022-12-22T06:39:23;44.40;;;18.30;;
22687;SDS011;11511;51.514;7.080;2022-12-22T06:41:49;33.25;;;16.55;;
22687;SDS011;11511;51.514;7.080;2022-12-22T06:44:34;30.30;;;16.02;;
22687;SDS011;11511;51.514;7.080;2022-12-22T06:46:59;25.92;;;15.20;;
22687;SDS011;11511;51.514;7.080;2022-12-22T06:49:25;29.02;;;16.00;;
22687;SDS011;11511;51.514;7.080;2022-12-22T06:51:51;33.25;;;14.90;;
22687;SDS011;11511;51.514;7.080;2022-12-22T06:54:16;67.00;;;14.35;;
22687;SDS011;11511;51.514;7.080;2022-12-22T06:56:42;39.80;;;18.25;;
22687;SDS011;11511;51.514;7.080;2022-12-22T06:59:08;18.85;;;12.20;;
22687;SDS011;11511;51.514;7.080;2022-12-22T07:01:33;23.08;;;13.00;;
22687;SDS011;11511;51.514;7.080;2022-12-22T07:04:00;21.65;;;11.77;;
22687;SDS011;11511;51.514;7.080;2022-12-22T07:06:25;19.77;;;12.25;;
22687;SDS011;11511;51.514;7.080;2022-12-22T07:08:51;28.38;;;11.15;;
22687;SDS011;11511;51.514;7.080;2022-12-22T07:11:17;28.30;;;15.48;;
22687;SDS011;11511;51.514;7.080;2022-12-22T07:13:43;31.50;;;16.70;;
22687;SDS011;11511;51.514;7.080;2022-12-22T07:16:09;47.40;;;17.88;;
22687;SDS011;11511;51.514;7.080;2022-12-22T07:18:39;31.27;;;16.33;;
22687;SDS011;11511;51.514;7.080;2022-12-22T07:21:07;34.85;;;15.18;;
22687;SDS011;11511;51.514;7.080;2022-12-22T07:23:35;56.78;;;20.73;;
22687;SDS011;11511;51.514;7.080;2022-12-22T07:26:01;57.92;;;22.35;;
22687;SDS011;11511;51.514;7.080;2022-12-22T07:28:27;53.28;;;22.90;;
22687;SDS011;11511;51.514;7.080;2022-12-22T07:30:53;59.13;;;24.60;;
22687;SDS011;11511;51.514;7.080;2022-12-22T07:33:20;61.70;;;26.00;;
22687;SDS011;11511;51.514;7.080;2022-12-22T07:35:46;62.72;;;25.77;;
22687;SDS011;11511;51.514;7.080;2022-12-22T07:38:12;79.22;;;28.50;;
22687;SDS011;11511;51.514;7.080;2022-12-22T07:40:37;73.85;;;28.30;;
22687;SDS011;11511;51.514;7.080;2022-12-22T07:43:03;76.65;;;28.92;;
22687;SDS011;11511;51.514;7.080;2022-12-22T07:45:29;80.10;;;28.73;;
22687;SDS011;11511;51.514;7.080;2022-12-22T07:47:58;82.97;;;28.65;;
22687;SDS011;11511;51.514;7.080;2022-12-22T07:50:24;82.88;;;29.58;;
22687;SDS011;11511;51.514;7.080;2022-12-22T07:52:56;93.68;;;29.58;;
22687;SDS011;11511;51.514;7.080;2022-12-22T07:55:22;90.72;;;29.13;;
22687;SDS011;11511;51.514;7.080;2022-12-22T07:57:49;72.32;;;29.05;;
22687;SDS011;11511;51.514;7.080;2022-12-22T08:00:15;80.72;;;29.08;;
22687;SDS011;11511;51.514;7.080;2022-12-22T08:02:42;81.80;;;28.67;;
22687;SDS011;11511;51.514;7.080;2022-12-22T08:05:09;74.65;;;27.10;;
22687;SDS011;11511;51.514;7.080;2022-12-22T08:07:34;73.10;;;26.10;;
22687;SDS011;11511;51.514;7.080;2022-12-22T08:10:03;78.70;;;27.45;;
22687;SDS011;11511;51.514;7.080;2022-12-22T08:12:29;72.88;;;24.85;;
22687;SDS011;11511;51.514;7.080;2022-12-22T08:14:56;85.72;;;25.77;;
22687;SDS011;11511;51.514;7.080;2022-12-22T08:17:27;82.75;;;24.77;;
22687;SDS011;11511;51.514;7.080;2022-12-22T08:19:53;78.30;;;25.90;;
22687;SDS011;11511;51.514;7.080;2022-12-22T08:22:20;78.43;;;24.55;;
22687;SDS011;11511;51.514;7.080;2022-12-22T08:24:53;75.18;;;24.05;;
22687;SDS011;11511;51.514;7.080;2022-12-22T08:27:23;74.53;;;24.73;;
22687;SDS011;11511;51.514;7.080;2022-12-22T08:29:56;76.78;;;24.70;;
22687;SDS011;11511;51.514;7.080;2022-12-22T08:32:25;75.13;;;23.30;;
22687;SDS011;11511;51.514;7.080;2022-12-22T08:34:51;75.60;;;22.58;;
22687;SDS011;11511;51.514;7.080;2022-12-22T08:37:19;72.75;;;21.40;;
22687;SDS011;11511;51.514;7.080;2022-12-22T08:39:47;69.78;;;21.83;;
22687;SDS011;11511;51.514;7.080;2022-12-22T08:42:16;69.15;;;20.75;;
22687;SDS011;11511;51.514;7.080;2022-12-22T08:44:44;76.50;;;21.27;;
22687;SDS011;11511;51.514;7.080;2022-12-22T08:47:11;85.15;;;23.60;;
22687;SDS011;11511;51.514;7.080;2022-12-22T08:49:37;75.90;;;22.13;;
22687;SDS011;11511;51.514;7.080;2022-12-22T08:52:03;83.60;;;21.73;;
22687;SDS011;11511;51.514;7.080;2022-12-22T08:54:28;75.90;;;20.42;;
22687;SDS011;11511;51.514;7.080;2022-12-22T08:56:54;76.97;;;21.42;;
22687;SDS011;11511;51.514;7.080;2022-12-22T08:59:22;90.57;;;22.13;;
22687;SDS011;11511;51.514;7.080;2022-12-22T09:01:48;77.75;;;22.02;;
22687;SDS011;11511;51.514;7.080;2022-12-22T09:04:15;95.25;;;22.17;;
22687;SDS011;11511;51.514;7.080;2022-12-22T09:06:43;80.45;;;21.92;;
22687;SDS011;11511;51.514;7.080;2022-12-22T09:09:10;89.50;;;24.35;;
22687;SDS011;11511;51.514;7.080;2022-12-22T09:11:37;80.55;;;21.58;;
22687;SDS011;11511;51.514;7.080;2022-12-22T09:14:04;66.78;;;20.60;;
22687;SDS011;11511;51.514;7.080;2022-12-22T09:16:31;72.75;;;20.55;;
22687;SDS011;11511;51.514;7.080;2022-12-22T09:18:58;63.15;;;19.73;;
22687;SDS011;11511;51.514;7.080;2022-12-22T09:21:24;66.78;;;21.35;;
22687;SDS011;11511;51.514;7.080;2022-12-22T09:23:51;76.65;;;22.83;;
22687;SDS011;11511;51.514;7.080;2022-12-22T09:26:18;71.60;;;22.58;;
22687;SDS011;11511;51.514;7.080;2022-12-22T09:28:46;69.97;;;21.90;;
22687;SDS011;11511;51.514;7.080;2022-12-22T09:31:11;66.88;;;21.75;;
22687;SDS011;11511;51.514;7.080;2022-12-22T09:33:38;65.18;;;22.35;;
22687;SDS011;11511;51.514;7.080;2022-12-22T09:36:04;74.13;;;24.98;;
22687;SDS011;11511;51.514;7.080;2022-12-22T09:38:37;72.85;;;24.67;;
22687;SDS011;11511;51.514;7.080;2022-12-22T09:41:07;76.95;;;25.40;;
22687;SDS011;11511;51.514;7.080;2022-12-22T09:43:35;71.38;;;23.95;;
22687;SDS011;11511;51.514;7.080;2022-12-22T09:46:01;71.78;;;24.35;;
22687;SDS011;11511;51.514;7.080;2022-12-22T09:48:30;75.60;;;25.38;;
22687;SDS011;11511;51.514;7.080;2022-12-22T09:51:01;62.23;;;23.30;;
22687;SDS011;11511;51.514;7.080;2022-12-22T09:53:29;62.97;;;24.40;;
22687;SDS011;11511;51.514;7.080;2022-12-22T09:55:56;62.47;;;25.42;;
22687;SDS011;11511;51.514;7.080;2022-12-22T09:58:29;67.18;;;25.65;;
22687;SDS011;11511;51.514;7.080;2022-12-22T10:04:00;69.18;;;26.90;;
22687;SDS011;11511;51.514;7.080;2022-12-22T10:09:29;69.90;;;28.17;;
22687;SDS011;11511;51.514;7.080;2022-12-22T10:11:57;69.90;;;28.83;;
22687;SDS011;11511;51.514;7.080;2022-12-22T10:14:26;65.22;;;26.27;;
22687;SDS011;11511;51.514;7.080;2022-12-22T10:17:31;68.55;;;26.75;;
22687;SDS011;11511;51.514;7.080;2022-12-22T10:19:53;67.87;;;25.73;;
22687;SDS011;11511;51.514;7.080;2022-12-22T10:22:35;65.47;;;25.48;;
22687;SDS011;11511;51.514;7.080;2022-12-22T10:25:22;63.90;;;25.02;;
22687;SDS011;11511;51.514;7.080;2022-12-22T10:27:58;62.22;;;25.17;;
22687;SDS011;11511;51.514;7.080;2022-12-22T10:30:31;70.10;;;26.02;;
22687;SDS011;11511;51.514;7.080;2022-12-22T10:33:07;66.60;;;25.63;;
22687;SDS011;11511;51.514;7.080;2022-12-22T10:38:30;58.95;;;24.80;;
22687;SDS011;11511;51.514;7.080;2022-12-22T10:41:02;64.50;;;24.67;;
22687;SDS011;11511;51.514;7.080;2022-12-22T10:43:29;59.85;;;25.30;;
22687;SDS011;11511;51.514;7.080;2022-12-22T10:46:00;57.63;;;23.70;;
22687;SDS011;11511;51.514;7.080;2022-12-22T10:48:28;52.45;;;22.70;;
22687;SDS011;11511;51.514;7.080;2022-12-22T10:50:56;54.35;;;23.15;;
22687;SDS011;11511;51.514;7.080;2022-12-22T10:56:11;43.22;;;21.95;;
22687;SDS011;11511;51.514;7.080;2022-12-22T10:58:47;32.53;;;18.85;;
22687;SDS011;11511;51.514;7.080;2022-12-22T11:01:23;25.88;;;16.02;;
22687;SDS011;11511;51.514;7.080;2022-12-22T11:03:51;21.13;;;13.43;;
22687;SDS011;11511;51.514;7.080;2022-12-22T11:06:16;15.95;;;11.10;;
22687;SDS011;11511;51.514;7.080;2022-12-22T11:08:43;14.60;;;10.43;;
22687;SDS011;11511;51.514;7.080;2022-12-22T11:11:12;12.80;;;8.35;;
22687;SDS011;11511;51.514;7.080;2022-12-22T11:14:32;13.13;;;8.60;;
22687;SDS011;11511;51.514;7.080;2022-12-22T11:16:40;14.82;;;9.00;;
22687;SDS011;11511;51.514;7.080;2022-12-22T11:39:14;28.02;;;16.10;;
22687;SDS011;11511;51.514;7.080;2022-12-22T11:44:40;32.75;;;19.45;;
22687;SDS011;11511;51.514;7.080;2022-12-22T11:47:27;31.38;;;19.65;;
22687;SDS011;11511;51.514;7.080;2022-12-22T11:50:04;34.05;;;20.25;;
22687;SDS011;11511;51.514;7.080;2022-12-22T11:55:46;37.65;;;21.77;;
22687;SDS011;11511;51.514;7.080;2022-12-22T12:01:41;39.70;;;22.63;;
22687;SDS011;11511;51.514;7.080;2022-12-22T12:12:16;26.15;;;17.00;;
22687;SDS011;11511;51.514;7.080;2022-12-22T12:15:12;24.48;;;15.57;;
22687;SDS011;11511;51.514;7.080;2022-12-22T12:18:12;25.95;;;15.80;;
22687;SDS011;11511;51.514;7.080;2022-12-22T12:21:12;24.75;;;14.60;;
22687;SDS011;11511;51.514;7.080;2022-12-22T12:24:11;22.98;;;14.73;;
22687;SDS011;11511;51.514;7.080;2022-12-22T12:26:59;23.25;;;14.93;;
22687;SDS011;11511;51.514;7.080;2022-12-22T12:33:15;23.10;;;13.77;;
22687;SDS011;11511;51.514;7.080;2022-12-22T12:41:18;18.42;;;11.13;;
22687;SDS011;11511;51.514;7.080;2022-12-22T12:43:49;17.30;;;11.02;;
22687;SDS011;11511;51.514;7.080;2022-12-22T12:52:04;15.48;;;9.55;;
22687;SDS011;11511;51.514;7.080;2022-12-22T13:10:29;17.25;;;9.20;;
22687;SDS011;11511;51.514;7.080;2022-12-22T13:12:56;18.48;;;9.65;;
22687;SDS011;11511;51.514;7.080;2022-12-22T13:15:30;15.82;;;10.00;;
22687;SDS011;11511;51.514;7.080;2022-12-22T13:20:52;17.17;;;9.80;;
22687;SDS011;11511;51.514;7.080;2022-12-22T13:23:19;15.20;;;10.30;;
22687;SDS011;11511;51.514;7.080;2022-12-22T13:28:17;16.85;;;10.18;;
22687;SDS011;11511;51.514;7.080;2022-12-22T13:30:49;16.77;;;10.88;;
22687;SDS011;11511;51.514;7.080;2022-12-22T13:33:23;18.20;;;11.77;;
22687;SDS011;11511;51.514;7.080;2022-12-22T13:35:51;16.52;;;11.20;;
22687;SDS011;11511;51.514;7.080;2022-12-22T13:38:30;18.13;;;11.90;;
22687;SDS011;11511;51.514;7.080;2022-12-22T13:40:59;20.73;;;13.00;;
22687;SDS011;11511;51.514;7.080;2022-12-22T13:43:29;23.30;;;12.68;;
22687;SDS011;11511;51.514;7.080;2022-12-22T13:45:57;23.40;;;13.43;;
22687;SDS011;11511;51.514;7.080;2022-12-22T13:48:28;19.88;;;14.23;;
22687;SDS011;11511;51.514;7.080;2022-12-22T13:51:03;20.75;;;14.38;;
22687;SDS011;11511;51.514;7.080;2022-12-22T13:53:39;20.10;;;15.07;;
22687;SDS011;11511;51.514;7.080;2022-12-22T13:56:21;22.40;;;15.43;;
22687;SDS011;11511;51.514;7.080;2022-12-22T13:58:50;24.02;;;16.00;;
22687;SDS011;11511;51.514;7.080;2022-12-22T14:01:22;22.42;;;15.60;;
22687;SDS011;11511;51.514;7.080;2022-12-22T14:03:52;23.60;;;14.98;;
22687;SDS011;11511;51.514;7.080;2022-12-22T14:11:47;21.40;;;14.63;;
22687;SDS011;11511;51.514;7.080;2022-12-22T14:14:26;22.27;;;14.13;;
22687;SDS011;11511;51.514;7.080;2022-12-22T14:16:55;19.48;;;13.73;;
22687;SDS011;11511;51.514;7.080;2022-12-22T14:19:24;23.20;;;13.82;;
22687;SDS011;11511;51.514;7.080;2022-12-22T14:22:02;19.80;;;12.65;;
22687;SDS011;11511;51.514;7.080;2022-12-22T14:24:40;19.73;;;12.52;;
22687;SDS011;11511;51.514;7.080;2022-12-22T14:30:05;19.98;;;12.27;;
22687;SDS011;11511;51.514;7.080;2022-12-22T14:32:40;18.73;;;11.38;;
22687;SDS011;11511;51.514;7.080;2022-12-22T14:37:51;18.48;;;11.68;;
22687;SDS011;11511;51.514;7.080;2022-12-22T14:40:34;16.15;;;11.45;;
22687;SDS011;11511;51.514;7.080;2022-12-22T14:43:18;16.60;;;10.80;;
22687;SDS011;11511;51.514;7.080;2022-12-22T14:45:49;14.82;;;10.05;;
22687;SDS011;11511;51.514;7.080;2022-12-22T14:48:23;14.75;;;10.00;;
22687;SDS011;11511;51.514;7.080;2022-12-22T14:50:54;14.02;;;9.45;;
22687;SDS011;11511;51.514;7.080;2022-12-22T14:53:21;13.55;;;9.25;;
22687;SDS011;11511;51.514;7.080;2022-12-22T14:55:50;16.67;;;9.80;;
22687;SDS011;11511;51.514;7.080;2022-12-22T14:58:20;14.68;;;9.25;;
22687;SDS011;11511;51.514;7.080;2022-12-22T15:03:37;15.02;;;9.32;;
22687;SDS011;11511;51.514;7.080;2022-12-22T15:11:39;17.48;;;9.90;;
22687;SDS011;11511;51.514;7.080;2022-12-22T15:14:13;15.65;;;10.05;;
22687;SDS011;11511;51.514;7.080;2022-12-22T15:16:41;14.65;;;10.18;;
22687;SDS011;11511;51.514;7.080;2022-12-22T15:19:11;14.93;;;10.02;;
22687;SDS011;11511;51.514;7.080;2022-12-22T15:21:39;17.50;;;10.65;;
22687;SDS011;11511;51.514;7.080;2022-12-22T15:24:12;16.30;;;10.25;;
22687;SDS011;11511;51.514;7.080;2022-12-22T15:26:40;16.27;;;9.10;;
22687;SDS011;11511;51.514;7.080;2022-12-22T15:29:07;17.00;;;11.05;;
22687;SDS011;11511;51.514;7.080;2022-12-22T15:31:33;20.90;;;11.02;;
22687;SDS011;11511;51.514;7.080;2022-12-22T15:33:59;16.55;;;11.02;;
22687;SDS011;11511;51.514;7.080;2022-12-22T15:36:27;16.50;;;11.15;;
22687;SDS011;11511;51.514;7.080;2022-12-22T15:38:53;20.67;;;11.55;;
22687;SDS011;11511;51.514;7.080;2022-12-22T15:41:19;22.58;;;11.27;;
22687;SDS011;11511;51.514;7.080;2022-12-22T15:43:45;19.27;;;11.43;;
22687;SDS011;11511;51.514;7.080;2022-12-22T15:46:12;20.90;;;12.15;;
22687;SDS011;11511;51.514;7.080;2022-12-22T15:48:40;16.48;;;11.85;;
22687;SDS011;11511;51.514;7.080;2022-12-22T15:51:08;21.73;;;12.27;;
22687;SDS011;11511;51.514;7.080;2022-12-22T15:53:49;19.83;;;12.15;;
22687;SDS011;11511;51.514;7.080;2022-12-22T15:56:20;23.70;;;12.82;;
22687;SDS011;11511;51.514;7.080;2022-12-22T15:58:48;20.10;;;13.20;;
22687;SDS011;11511;51.514;7.080;2022-12-22T16:01:15;23.92;;;13.80;;
22687;SDS011;11511;51.514;7.080;2022-12-22T16:03:40;24.73;;;14.45;;
22687;SDS011;11511;51.514;7.080;2022-12-22T16:06:09;24.98;;;14.40;;
22687;SDS011;11511;51.514;7.080;2022-12-22T16:08:38;22.40;;;14.07;;
22687;SDS011;11511;51.514;7.080;2022-12-22T16:11:06;27.65;;;14.60;;
22687;SDS011;11511;51.514;7.080;2022-12-22T16:13:33;23.00;;;15.88;;
22687;SDS011;11511;51.514;7.080;2022-12-22T16:16:02;25.58;;;16.02;;
22687;SDS011;11511;51.514;7.080;2022-12-22T16:18:28;24.20;;;14.90;;
22687;SDS011;11511;51.514;7.080;2022-12-22T16:20:53;28.33;;;15.70;;
22687;SDS011;11511;51.514;7.080;2022-12-22T16:23:23;26.38;;;15.93;;
22687;SDS011;11511;51.514;7.080;2022-12-22T16:25:51;27.85;;;15.95;;
22687;SDS011;11511;51.514;7.080;2022-12-22T16:28:22;25.23;;;15.00;;
22687;SDS011;11511;51.514;7.080;2022-12-22T16:30:49;25.50;;;15.50;;
22687;SDS011;11511;51.514;7.080;2022-12-22T16:33:17;31.52;;;16.50;;
22687;SDS011;11511;51.514;7.080;2022-12-22T16:35:43;23.65;;;15.85;;
22687;SDS011;11511;51.514;7.080;2022-12-22T16:38:10;24.17;;;15.65;;
22687;SDS011;11511;51.514;7.080;2022-12-22T16:40:46;24.95;;;15.98;;
22687;SDS011;11511;51.514;7.080;2022-12-22T16:43:34;24.02;;;15.75;;
22687;SDS011;11511;51.514;7.080;2022-12-22T16:46:04;24.98;;;15.77;;
22687;SDS011;11511;51.514;7.080;2022-12-22T16:48:32;28.45;;;17.52;;
22687;SDS011;11511;51.514;7.080;2022-12-22T16:51:02;26.58;;;16.20;;
22687;SDS011;11511;51.514;7.080;2022-12-22T16:53:29;28.23;;;16.40;;
22687;SDS011;11511;51.514;7.080;2022-12-22T16:55:56;23.58;;;15.77;;
22687;SDS011;11511;51.514;7.080;2022-12-22T16:58:24;29.98;;;17.25;;
22687;SDS011;11511;51.514;7.080;2022-12-22T17:00:50;30.90;;;17.42;;
22687;SDS011;11511;51.514;7.080;2022-12-22T17:03:18;26.65;;;17.80;;
22687;SDS011;11511;51.514;7.080;2022-12-22T17:05:50;27.88;;;17.00;;
22687;SDS011;11511;51.514;7.080;2022-12-22T17:08:29;27.92;;;17.83;;
22687;SDS011;11511;51.514;7.080;2022-12-22T17:10:59;28.55;;;17.30;;